sensor_id;sensor_type;location;lat;lon;timestamp;P1;durP1;ratioP1;P2;durP2;ratioP2
36671;SDS011;22663;47.412;9.742;2022-10-16T00:00:00;3.17;;;0.90;;
36671;SDS011;22663;47.412;9.742;2022-10-16T00:02:26;1.73;;;0.82;;
36671;SDS011;22663;47.412;9.742;2022-10-16T00:04:52;2.08;;;0.70;;
36671;SDS011;22663;47.412;9.742;2022-10-16T00:07:19;1.23;;;0.80;;
36671;SDS011;22663;47.412;9.742;2022-10-16T00:09:45;2.63;;;0.80;;
36671;SDS011;22663;47.412;9.742;2022-10-16T00:12:11;3.25;;;1.38;;
36671;SDS011;22663;47.412;9.742;2022-10-16T00:14:38;5.85;;;1.05;;
36671;SDS011;22663;47.412;9.742;2022-10-16T00:17:06;1.90;;;1.00;;
36671;SDS011;22663;47.412;9.742;2022-10-16T00:19:32;1.20;;;0.77;;
36671;SDS011;22663;47.412;9.742;2022-10-16T00:21:58;3.60;;;0.80;;
36671;SDS011;22663;47.412;9.742;2022-10-16T00:24:25;2.17;;;0.77;;
36671;SDS011;22663;47.412;9.742;2022-10-16T00:26:51;2.53;;;0.80;;
36671;SDS011;22663;47.412;9.742;2022-10-16T00:29:17;4.28;;;0.98;;
36671;SDS011;22663;47.412;9.742;2022-10-16T00:31:43;2.97;;;0.88;;
36671;SDS011;22663;47.412;9.742;2022-10-16T00:34:09;2.55;;;0.80;;
36671;SDS011;22663;47.412;9.742;2022-10-16T00:36:35;5.50;;;0.70;;
36671;SDS011;22663;47.412;9.742;2022-10-16T00:39:02;3.20;;;0.80;;
36671;SDS011;22663;47.412;9.742;2022-10-16T00:41:28;2.53;;;0.80;;
36671;SDS011;22663;47.412;9.742;2022-10-16T00:43:58;2.15;;;0.60;;
36671;SDS011;22663;47.412;9.742;2022-10-16T00:46:38;3.15;;;0.80;;
36671;SDS011;22663;47.412;9.742;2022-10-16T00:51:35;1.88;;;0.90;;
36671;SDS011;22663;47.412;9.742;2022-10-16T00:54:02;1.40;;;1.05;;
36671;SDS011;22663;47.412;9.742;2022-10-16T00:56:29;1.80;;;0.90;;
36671;SDS011;22663;47.412;9.742;2022-10-16T00:58:55;2.10;;;1.05;;
36671;SDS011;22663;47.412;9.742;2022-10-16T01:01:21;2.45;;;0.93;;
36671;SDS011;22663;47.412;9.742;2022-10-16T01:03:47;1.58;;;1.15;;
36671;SDS011;22663;47.412;9.742;2022-10-16T01:09:27;2.35;;;1.17;;
36671;SDS011;22663;47.412;9.742;2022-10-16T01:13:58;2.50;;;1.00;;
36671;SDS011;22663;47.412;9.742;2022-10-16T01:18:53;1.75;;;0.80;;
36671;SDS011;22663;47.412;9.742;2022-10-16T01:21:27;2.38;;;0.90;;
36671;SDS011;22663;47.412;9.742;2022-10-16T01:29:08;3.25;;;1.05;;
36671;SDS011;22663;47.412;9.742;2022-10-16T01:31:36;3.58;;;1.35;;
36671;SDS011;22663;47.412;9.742;2022-10-16T01:34:05;3.55;;;1.00;;
36671;SDS011;22663;47.412;9.742;2022-10-16T01:36:36;3.78;;;1.08;;
36671;SDS011;22663;47.412;9.742;2022-10-16T01:39:03;6.90;;;1.50;;
36671;SDS011;22663;47.412;9.742;2022-10-16T01:41:44;1.95;;;1.35;;
36671;SDS011;22663;47.412;9.742;2022-10-16T01:44:17;4.18;;;1.35;;
36671;SDS011;22663;47.412;9.742;2022-10-16T01:46:46;3.60;;;1.60;;
36671;SDS011;22663;47.412;9.742;2022-10-16T01:49:14;3.22;;;1.48;;
36671;SDS011;22663;47.412;9.742;2022-10-16T01:51:40;2.35;;;1.67;;
36671;SDS011;22663;47.412;9.742;2022-10-16T01:54:07;3.28;;;1.25;;
36671;SDS011;22663;47.412;9.742;2022-10-16T01:56:34;3.13;;;1.35;;
36671;SDS011;22663;47.412;9.742;2022-10-16T01:59:05;2.05;;;0.70;;
36671;SDS011;22663;47.412;9.742;2022-10-16T02:01:33;3.05;;;1.00;;
36671;SDS011;22663;47.412;9.742;2022-10-16T02:04:01;2.38;;;0.80;;
36671;SDS011;22663;47.412;9.742;2022-10-16T02:06:28;1.05;;;0.80;;
36671;SDS011;22663;47.412;9.742;2022-10-16T02:08:54;1.48;;;0.82;;
36671;SDS011;22663;47.412;9.742;2022-10-16T02:11:20;2.70;;;1.15;;
36671;SDS011;22663;47.412;9.742;2022-10-16T02:13:48;1.73;;;0.90;;
36671;SDS011;22663;47.412;9.742;2022-10-16T02:16:16;2.55;;;0.80;;
36671;SDS011;22663;47.412;9.742;2022-10-16T02:18:43;4.15;;;1.10;;
36671;SDS011;22663;47.412;9.742;2022-10-16T02:21:33;12.85;;;1.55;;
36671;SDS011;22663;47.412;9.742;2022-10-16T02:24:12;2.35;;;1.20;;
36671;SDS011;22663;47.412;9.742;2022-10-16T02:29:07;1.75;;;0.85;;
36671;SDS011;22663;47.412;9.742;2022-10-16T02:31:34;3.17;;;1.20;;
36671;SDS011;22663;47.412;9.742;2022-10-16T02:34:01;7.30;;;1.20;;
36671;SDS011;22663;47.412;9.742;2022-10-16T02:36:30;3.58;;;1.30;;
36671;SDS011;22663;47.412;9.742;2022-10-16T02:38:56;1.20;;;0.90;;
36671;SDS011;22663;47.412;9.742;2022-10-16T02:41:25;4.55;;;1.25;;
36671;SDS011;22663;47.412;9.742;2022-10-16T02:43:51;2.85;;;0.90;;
36671;SDS011;22663;47.412;9.742;2022-10-16T02:46:17;1.92;;;1.52;;
36671;SDS011;22663;47.412;9.742;2022-10-16T02:48:44;3.15;;;1.13;;
36671;SDS011;22663;47.412;9.742;2022-10-16T02:51:10;4.38;;;1.30;;
36671;SDS011;22663;47.412;9.742;2022-10-16T02:53:36;1.80;;;1.30;;
36671;SDS011;22663;47.412;9.742;2022-10-16T02:56:02;3.00;;;1.48;;
36671;SDS011;22663;47.412;9.742;2022-10-16T02:58:28;4.82;;;1.40;;
36671;SDS011;22663;47.412;9.742;2022-10-16T03:00:55;3.42;;;1.00;;
36671;SDS011;22663;47.412;9.742;2022-10-16T03:03:21;5.85;;;1.55;;
36671;SDS011;22663;47.412;9.742;2022-10-16T03:05:47;4.28;;;1.35;;
36671;SDS011;22663;47.412;9.742;2022-10-16T03:08:13;2.08;;;1.30;;
36671;SDS011;22663;47.412;9.742;2022-10-16T03:10:39;2.15;;;1.27;;
36671;SDS011;22663;47.412;9.742;2022-10-16T03:13:05;3.88;;;1.48;;
36671;SDS011;22663;47.412;9.742;2022-10-16T03:15:32;3.08;;;1.33;;
36671;SDS011;22663;47.412;9.742;2022-10-16T03:17:58;2.70;;;1.73;;
36671;SDS011;22663;47.412;9.742;2022-10-16T03:20:24;3.65;;;1.65;;
36671;SDS011;22663;47.412;9.742;2022-10-16T03:22:50;2.65;;;1.30;;
36671;SDS011;22663;47.412;9.742;2022-10-16T03:25:16;3.28;;;1.70;;
36671;SDS011;22663;47.412;9.742;2022-10-16T03:27:43;3.35;;;2.17;;
36671;SDS011;22663;47.412;9.742;2022-10-16T03:30:09;6.63;;;2.28;;
36671;SDS011;22663;47.412;9.742;2022-10-16T03:32:35;8.57;;;2.47;;
36671;SDS011;22663;47.412;9.742;2022-10-16T03:35:01;4.45;;;2.08;;
36671;SDS011;22663;47.412;9.742;2022-10-16T03:37:27;7.07;;;2.25;;
36671;SDS011;22663;47.412;9.742;2022-10-16T03:39:53;4.07;;;1.85;;
36671;SDS011;22663;47.412;9.742;2022-10-16T03:42:20;8.35;;;1.77;;
36671;SDS011;22663;47.412;9.742;2022-10-16T03:44:46;4.07;;;1.40;;
36671;SDS011;22663;47.412;9.742;2022-10-16T03:47:12;3.60;;;1.65;;
36671;SDS011;22663;47.412;9.742;2022-10-16T03:49:38;4.45;;;1.30;;
36671;SDS011;22663;47.412;9.742;2022-10-16T03:52:04;1.95;;;1.20;;
36671;SDS011;22663;47.412;9.742;2022-10-16T03:54:30;3.05;;;1.60;;
36671;SDS011;22663;47.412;9.742;2022-10-16T03:56:56;3.60;;;1.55;;
36671;SDS011;22663;47.412;9.742;2022-10-16T03:59:22;2.78;;;1.70;;
36671;SDS011;22663;47.412;9.742;2022-10-16T04:01:48;3.17;;;1.58;;
36671;SDS011;22663;47.412;9.742;2022-10-16T04:04:14;4.70;;;1.42;;
36671;SDS011;22663;47.412;9.742;2022-10-16T04:06:40;2.30;;;1.30;;
36671;SDS011;22663;47.412;9.742;2022-10-16T04:09:06;1.85;;;1.17;;
36671;SDS011;22663;47.412;9.742;2022-10-16T04:11:33;3.90;;;1.27;;
36671;SDS011;22663;47.412;9.742;2022-10-16T04:13:59;3.13;;;1.65;;
36671;SDS011;22663;47.412;9.742;2022-10-16T04:16:25;4.72;;;1.77;;
36671;SDS011;22663;47.412;9.742;2022-10-16T04:18:51;3.88;;;1.30;;
36671;SDS011;22663;47.412;9.742;2022-10-16T04:21:17;5.63;;;1.20;;
36671;SDS011;22663;47.412;9.742;2022-10-16T04:23:43;2.25;;;1.08;;
36671;SDS011;22663;47.412;9.742;2022-10-16T04:26:09;2.55;;;1.35;;
36671;SDS011;22663;47.412;9.742;2022-10-16T04:28:35;2.15;;;1.15;;
36671;SDS011;22663;47.412;9.742;2022-10-16T04:31:05;2.20;;;1.35;;
36671;SDS011;22663;47.412;9.742;2022-10-16T04:33:31;5.28;;;1.20;;
36671;SDS011;22663;47.412;9.742;2022-10-16T04:35:58;3.58;;;1.23;;
36671;SDS011;22663;47.412;9.742;2022-10-16T04:38:24;2.53;;;1.30;;
36671;SDS011;22663;47.412;9.742;2022-10-16T04:40:50;2.47;;;1.10;;
36671;SDS011;22663;47.412;9.742;2022-10-16T04:43:17;3.55;;;1.10;;
36671;SDS011;22663;47.412;9.742;2022-10-16T04:45:43;2.22;;;0.93;;
36671;SDS011;22663;47.412;9.742;2022-10-16T04:48:09;2.03;;;1.00;;
36671;SDS011;22663;47.412;9.742;2022-10-16T04:50:35;1.10;;;0.88;;
36671;SDS011;22663;47.412;9.742;2022-10-16T04:53:01;1.55;;;1.08;;
36671;SDS011;22663;47.412;9.742;2022-10-16T04:55:27;1.48;;;0.95;;
36671;SDS011;22663;47.412;9.742;2022-10-16T04:57:53;3.78;;;1.23;;
36671;SDS011;22663;47.412;9.742;2022-10-16T05:00:19;2.88;;;1.45;;
36671;SDS011;22663;47.412;9.742;2022-10-16T05:02:47;5.65;;;1.63;;
36671;SDS011;22663;47.412;9.742;2022-10-16T05:05:13;5.18;;;1.92;;
36671;SDS011;22663;47.412;9.742;2022-10-16T05:07:39;1.30;;;1.20;;
36671;SDS011;22663;47.412;9.742;2022-10-16T05:10:05;4.05;;;1.30;;
36671;SDS011;22663;47.412;9.742;2022-10-16T05:12:31;1.92;;;1.58;;
36671;SDS011;22663;47.412;9.742;2022-10-16T05:14:57;3.17;;;1.50;;
36671;SDS011;22663;47.412;9.742;2022-10-16T05:17:24;5.15;;;1.60;;
36671;SDS011;22663;47.412;9.742;2022-10-16T05:19:50;2.50;;;1.55;;
36671;SDS011;22663;47.412;9.742;2022-10-16T05:22:16;4.28;;;1.67;;
36671;SDS011;22663;47.412;9.742;2022-10-16T05:24:43;2.08;;;1.50;;
36671;SDS011;22663;47.412;9.742;2022-10-16T05:27:09;3.10;;;0.93;;
36671;SDS011;22663;47.412;9.742;2022-10-16T05:29:36;4.30;;;0.60;;
36671;SDS011;22663;47.412;9.742;2022-10-16T05:32:02;1.10;;;0.50;;
36671;SDS011;22663;47.412;9.742;2022-10-16T05:34:28;3.30;;;0.80;;
36671;SDS011;22663;47.412;9.742;2022-10-16T05:36:54;2.15;;;0.88;;
36671;SDS011;22663;47.412;9.742;2022-10-16T05:39:20;2.40;;;0.50;;
36671;SDS011;22663;47.412;9.742;2022-10-16T05:41:46;3.78;;;0.95;;
36671;SDS011;22663;47.412;9.742;2022-10-16T05:44:15;1.98;;;0.70;;
36671;SDS011;22663;47.412;9.742;2022-10-16T05:46:41;2.55;;;0.63;;
36671;SDS011;22663;47.412;9.742;2022-10-16T05:49:07;2.63;;;0.80;;
36671;SDS011;22663;47.412;9.742;2022-10-16T05:51:33;3.03;;;1.00;;
36671;SDS011;22663;47.412;9.742;2022-10-16T05:53:59;1.67;;;1.10;;
36671;SDS011;22663;47.412;9.742;2022-10-16T05:56:25;2.20;;;1.10;;
36671;SDS011;22663;47.412;9.742;2022-10-16T05:58:52;2.30;;;1.55;;
36671;SDS011;22663;47.412;9.742;2022-10-16T06:01:18;3.75;;;1.40;;
36671;SDS011;22663;47.412;9.742;2022-10-16T06:03:45;4.95;;;4.25;;
36671;SDS011;22663;47.412;9.742;2022-10-16T06:06:13;2.95;;;1.70;;
36671;SDS011;22663;47.412;9.742;2022-10-16T06:08:39;2.45;;;1.80;;
36671;SDS011;22663;47.412;9.742;2022-10-16T06:11:07;5.35;;;1.40;;
36671;SDS011;22663;47.412;9.742;2022-10-16T06:13:33;2.10;;;1.67;;
36671;SDS011;22663;47.412;9.742;2022-10-16T06:16:00;3.10;;;1.50;;
36671;SDS011;22663;47.412;9.742;2022-10-16T06:18:27;6.45;;;1.70;;
36671;SDS011;22663;47.412;9.742;2022-10-16T06:20:53;1.75;;;1.02;;
36671;SDS011;22663;47.412;9.742;2022-10-16T06:23:20;5.72;;;1.85;;
36671;SDS011;22663;47.412;9.742;2022-10-16T06:25:46;4.22;;;1.80;;
36671;SDS011;22663;47.412;9.742;2022-10-16T06:28:13;4.20;;;1.92;;
36671;SDS011;22663;47.412;9.742;2022-10-16T06:30:39;1.58;;;1.23;;
36671;SDS011;22663;47.412;9.742;2022-10-16T06:33:05;4.15;;;1.30;;
36671;SDS011;22663;47.412;9.742;2022-10-16T06:35:31;4.00;;;1.33;;
36671;SDS011;22663;47.412;9.742;2022-10-16T06:37:57;4.50;;;1.92;;
36671;SDS011;22663;47.412;9.742;2022-10-16T06:40:24;12.20;;;6.50;;
36671;SDS011;22663;47.412;9.742;2022-10-16T06:42:50;14.70;;;9.35;;
36671;SDS011;22663;47.412;9.742;2022-10-16T06:45:17;13.93;;;10.52;;
36671;SDS011;22663;47.412;9.742;2022-10-16T06:47:43;8.90;;;7.00;;
36671;SDS011;22663;47.412;9.742;2022-10-16T06:50:09;9.35;;;6.53;;
36671;SDS011;22663;47.412;9.742;2022-10-16T06:52:35;6.57;;;4.32;;
36671;SDS011;22663;47.412;9.742;2022-10-16T06:55:01;8.93;;;3.22;;
36671;SDS011;22663;47.412;9.742;2022-10-16T06:57:28;3.65;;;2.78;;
36671;SDS011;22663;47.412;9.742;2022-10-16T06:59:54;7.88;;;4.10;;
36671;SDS011;22663;47.412;9.742;2022-10-16T07:02:20;2.95;;;2.00;;
36671;SDS011;22663;47.412;9.742;2022-10-16T07:04:46;4.03;;;2.13;;
36671;SDS011;22663;47.412;9.742;2022-10-16T07:07:13;5.20;;;2.28;;
36671;SDS011;22663;47.412;9.742;2022-10-16T07:09:39;3.72;;;2.28;;
36671;SDS011;22663;47.412;9.742;2022-10-16T07:12:06;3.42;;;2.50;;
36671;SDS011;22663;47.412;9.742;2022-10-16T07:14:32;5.90;;;3.17;;
36671;SDS011;22663;47.412;9.742;2022-10-16T07:16:58;8.80;;;3.22;;
36671;SDS011;22663;47.412;9.742;2022-10-16T07:19:24;3.80;;;2.47;;
36671;SDS011;22663;47.412;9.742;2022-10-16T07:21:50;3.70;;;2.00;;
36671;SDS011;22663;47.412;9.742;2022-10-16T07:24:16;3.90;;;1.70;;
36671;SDS011;22663;47.412;9.742;2022-10-16T07:26:43;2.70;;;1.20;;
36671;SDS011;22663;47.412;9.742;2022-10-16T07:29:13;3.95;;;1.00;;
36671;SDS011;22663;47.412;9.742;2022-10-16T07:31:40;1.40;;;1.10;;
36671;SDS011;22663;47.412;9.742;2022-10-16T07:34:06;3.50;;;1.13;;
36671;SDS011;22663;47.412;9.742;2022-10-16T07:36:32;2.88;;;1.10;;
36671;SDS011;22663;47.412;9.742;2022-10-16T07:38:58;4.72;;;1.80;;
36671;SDS011;22663;47.412;9.742;2022-10-16T07:41:24;3.55;;;1.65;;
36671;SDS011;22663;47.412;9.742;2022-10-16T07:43:53;2.20;;;1.30;;
36671;SDS011;22663;47.412;9.742;2022-10-16T07:46:22;2.38;;;1.30;;
36671;SDS011;22663;47.412;9.742;2022-10-16T07:48:48;3.67;;;1.65;;
36671;SDS011;22663;47.412;9.742;2022-10-16T07:51:15;2.75;;;1.15;;
36671;SDS011;22663;47.412;9.742;2022-10-16T07:53:41;2.22;;;1.02;;
36671;SDS011;22663;47.412;9.742;2022-10-16T07:56:08;1.90;;;1.00;;
36671;SDS011;22663;47.412;9.742;2022-10-16T07:58:34;3.42;;;1.13;;
36671;SDS011;22663;47.412;9.742;2022-10-16T08:01:04;5.30;;;1.15;;
36671;SDS011;22663;47.412;9.742;2022-10-16T08:03:31;3.17;;;0.95;;
36671;SDS011;22663;47.412;9.742;2022-10-16T08:05:57;1.23;;;0.98;;
36671;SDS011;22663;47.412;9.742;2022-10-16T08:08:24;1.90;;;1.10;;
36671;SDS011;22663;47.412;9.742;2022-10-16T08:10:50;1.95;;;1.38;;
36671;SDS011;22663;47.412;9.742;2022-10-16T08:13:16;1.45;;;1.00;;
36671;SDS011;22663;47.412;9.742;2022-10-16T08:15:43;3.35;;;1.40;;
36671;SDS011;22663;47.412;9.742;2022-10-16T08:18:10;3.05;;;1.30;;
36671;SDS011;22663;47.412;9.742;2022-10-16T08:20:36;2.95;;;1.05;;
36671;SDS011;22663;47.412;9.742;2022-10-16T08:23:02;3.40;;;1.15;;
36671;SDS011;22663;47.412;9.742;2022-10-16T08:25:29;3.40;;;1.40;;
36671;SDS011;22663;47.412;9.742;2022-10-16T08:27:55;2.83;;;1.20;;
36671;SDS011;22663;47.412;9.742;2022-10-16T08:30:22;4.45;;;1.10;;
36671;SDS011;22663;47.412;9.742;2022-10-16T08:32:48;2.72;;;1.10;;
36671;SDS011;22663;47.412;9.742;2022-10-16T08:35:14;4.43;;;1.10;;
36671;SDS011;22663;47.412;9.742;2022-10-16T08:37:41;4.22;;;1.40;;
36671;SDS011;22663;47.412;9.742;2022-10-16T08:40:41;2.15;;;1.20;;
36671;SDS011;22663;47.412;9.742;2022-10-16T08:48:05;3.13;;;1.83;;
36671;SDS011;22663;47.412;9.742;2022-10-16T08:50:36;4.72;;;1.73;;
36671;SDS011;22663;47.412;9.742;2022-10-16T08:53:03;3.50;;;1.70;;
36671;SDS011;22663;47.412;9.742;2022-10-16T08:57:57;1.45;;;1.00;;
36671;SDS011;22663;47.412;9.742;2022-10-16T09:00:23;1.95;;;1.10;;
36671;SDS011;22663;47.412;9.742;2022-10-16T09:02:56;2.05;;;1.15;;
36671;SDS011;22663;47.412;9.742;2022-10-16T09:15:51;2.50;;;0.73;;
36671;SDS011;22663;47.412;9.742;2022-10-16T09:21:14;1.60;;;0.55;;
36671;SDS011;22663;47.412;9.742;2022-10-16T09:23:41;2.03;;;0.63;;
36671;SDS011;22663;47.412;9.742;2022-10-16T09:26:09;1.77;;;0.60;;
36671;SDS011;22663;47.412;9.742;2022-10-16T09:28:37;2.25;;;0.75;;
36671;SDS011;22663;47.412;9.742;2022-10-16T09:31:03;5.13;;;0.57;;
36671;SDS011;22663;47.412;9.742;2022-10-16T09:33:30;1.83;;;0.60;;
36671;SDS011;22663;47.412;9.742;2022-10-16T09:35:58;2.03;;;0.73;;
36671;SDS011;22663;47.412;9.742;2022-10-16T09:38:29;1.20;;;0.90;;
36671;SDS011;22663;47.412;9.742;2022-10-16T09:40:56;2.05;;;0.70;;
36671;SDS011;22663;47.412;9.742;2022-10-16T09:43:38;3.75;;;1.00;;
36671;SDS011;22663;47.412;9.742;2022-10-16T09:46:07;0.77;;;0.57;;
36671;SDS011;22663;47.412;9.742;2022-10-16T09:51:03;1.20;;;0.70;;
36671;SDS011;22663;47.412;9.742;2022-10-16T09:53:40;1.00;;;0.60;;
36671;SDS011;22663;47.412;9.742;2022-10-16T09:56:07;1.63;;;0.55;;
36671;SDS011;22663;47.412;9.742;2022-10-16T09:58:33;0.95;;;0.60;;
36671;SDS011;22663;47.412;9.742;2022-10-16T10:01:00;1.55;;;0.50;;
36671;SDS011;22663;47.412;9.742;2022-10-16T10:03:39;0.90;;;0.50;;
36671;SDS011;22663;47.412;9.742;2022-10-16T10:06:22;4.63;;;0.82;;
36671;SDS011;22663;47.412;9.742;2022-10-16T10:08:56;1.40;;;0.63;;
36671;SDS011;22663;47.412;9.742;2022-10-16T10:11:38;0.95;;;0.50;;
36671;SDS011;22663;47.412;9.742;2022-10-16T10:14:15;1.40;;;0.80;;
36671;SDS011;22663;47.412;9.742;2022-10-16T10:16:43;1.30;;;0.90;;
36671;SDS011;22663;47.412;9.742;2022-10-16T10:19:16;1.63;;;0.85;;
36671;SDS011;22663;47.412;9.742;2022-10-16T10:21:43;1.50;;;0.70;;
36671;SDS011;22663;47.412;9.742;2022-10-16T10:24:13;1.23;;;0.70;;
36671;SDS011;22663;47.412;9.742;2022-10-16T10:31:57;0.60;;;0.40;;
36671;SDS011;22663;47.412;9.742;2022-10-16T10:34:36;1.10;;;0.55;;
36671;SDS011;22663;47.412;9.742;2022-10-16T10:37:05;1.60;;;0.40;;
36671;SDS011;22663;47.412;9.742;2022-10-16T10:39:36;0.60;;;0.52;;
36671;SDS011;22663;47.412;9.742;2022-10-16T10:44:52;0.77;;;0.57;;
36671;SDS011;22663;47.412;9.742;2022-10-16T10:47:31;2.08;;;0.70;;
36671;SDS011;22663;47.412;9.742;2022-10-16T11:00:21;1.50;;;0.60;;
36671;SDS011;22663;47.412;9.742;2022-10-16T11:07:57;3.33;;;0.70;;
36671;SDS011;22663;47.412;9.742;2022-10-16T11:10:26;1.25;;;0.77;;
36671;SDS011;22663;47.412;9.742;2022-10-16T11:15:38;1.75;;;0.47;;
36671;SDS011;22663;47.412;9.742;2022-10-16T11:20:32;1.25;;;0.60;;
36671;SDS011;22663;47.412;9.742;2022-10-16T11:23:35;3.17;;;0.70;;
36671;SDS011;22663;47.412;9.742;2022-10-16T11:25:51;0.95;;;0.52;;
36671;SDS011;22663;47.412;9.742;2022-10-16T11:28:23;3.15;;;0.95;;
36671;SDS011;22663;47.412;9.742;2022-10-16T11:30:59;0.85;;;0.47;;
36671;SDS011;22663;47.412;9.742;2022-10-16T11:33:42;2.67;;;0.70;;
36671;SDS011;22663;47.412;9.742;2022-10-16T11:36:15;1.80;;;0.77;;
36671;SDS011;22663;47.412;9.742;2022-10-16T11:41:12;2.42;;;0.70;;
36671;SDS011;22663;47.412;9.742;2022-10-16T11:46:14;0.63;;;0.45;;
36671;SDS011;22663;47.412;9.742;2022-10-16T11:48:42;1.13;;;0.52;;
36671;SDS011;22663;47.412;9.742;2022-10-16T11:51:16;2.23;;;0.70;;
36671;SDS011;22663;47.412;9.742;2022-10-16T11:53:50;2.50;;;0.75;;
36671;SDS011;22663;47.412;9.742;2022-10-16T11:56:20;0.75;;;0.60;;
36671;SDS011;22663;47.412;9.742;2022-10-16T12:01:17;0.80;;;0.50;;
36671;SDS011;22663;47.412;9.742;2022-10-16T12:11:44;0.80;;;0.70;;
36671;SDS011;22663;47.412;9.742;2022-10-16T12:16:37;1.95;;;0.82;;
36671;SDS011;22663;47.412;9.742;2022-10-16T12:19:11;1.42;;;0.80;;
36671;SDS011;22663;47.412;9.742;2022-10-16T12:21:38;3.88;;;0.90;;
36671;SDS011;22663;47.412;9.742;2022-10-16T12:24:04;1.70;;;0.90;;
36671;SDS011;22663;47.412;9.742;2022-10-16T12:26:34;2.15;;;0.80;;
36671;SDS011;22663;47.412;9.742;2022-10-16T12:31:44;1.50;;;0.70;;
36671;SDS011;22663;47.412;9.742;2022-10-16T12:34:17;0.93;;;0.70;;
36671;SDS011;22663;47.412;9.742;2022-10-16T12:36:47;2.15;;;0.80;;
36671;SDS011;22663;47.412;9.742;2022-10-16T12:39:21;1.83;;;0.77;;
36671;SDS011;22663;47.412;9.742;2022-10-16T12:41:48;1.27;;;0.70;;
36671;SDS011;22663;47.412;9.742;2022-10-16T12:44:22;1.52;;;0.70;;
36671;SDS011;22663;47.412;9.742;2022-10-16T12:46:49;1.88;;;0.60;;
36671;SDS011;22663;47.412;9.742;2022-10-16T12:49:28;5.43;;;0.93;;
36671;SDS011;22663;47.412;9.742;2022-10-16T12:51:55;1.48;;;0.50;;
36671;SDS011;22663;47.412;9.742;2022-10-16T13:05:05;2.15;;;0.80;;
36671;SDS011;22663;47.412;9.742;2022-10-16T13:10:15;1.08;;;0.93;;
36671;SDS011;22663;47.412;9.742;2022-10-16T13:12:49;1.45;;;0.90;;
36671;SDS011;22663;47.412;9.742;2022-10-16T13:17:52;2.35;;;1.10;;
36671;SDS011;22663;47.412;9.742;2022-10-16T13:28:17;2.75;;;1.50;;
36671;SDS011;22663;47.412;9.742;2022-10-16T13:30:52;2.65;;;1.60;;
36671;SDS011;22663;47.412;9.742;2022-10-16T13:35:52;3.33;;;1.60;;
36671;SDS011;22663;47.412;9.742;2022-10-16T13:38:19;2.15;;;1.77;;
36671;SDS011;22663;47.412;9.742;2022-10-16T13:43:15;2.33;;;1.42;;
36671;SDS011;22663;47.412;9.742;2022-10-16T13:45:41;1.85;;;1.60;;
36671;SDS011;22663;47.412;9.742;2022-10-16T13:48:17;2.60;;;1.60;;
36671;SDS011;22663;47.412;9.742;2022-10-16T13:50:44;3.63;;;1.67;;
36671;SDS011;22663;47.412;9.742;2022-10-16T13:53:13;3.03;;;1.50;;
36671;SDS011;22663;47.412;9.742;2022-10-16T13:55:40;1.85;;;1.42;;
36671;SDS011;22663;47.412;9.742;2022-10-16T13:58:12;1.85;;;1.60;;
36671;SDS011;22663;47.412;9.742;2022-10-16T14:00:38;3.72;;;1.77;;
36671;SDS011;22663;47.412;9.742;2022-10-16T14:03:06;10.00;;;2.10;;
36671;SDS011;22663;47.412;9.742;2022-10-16T14:05:33;3.00;;;1.65;;
36671;SDS011;22663;47.412;9.742;2022-10-16T14:08:00;2.97;;;2.08;;
36671;SDS011;22663;47.412;9.742;2022-10-16T14:10:30;2.85;;;1.70;;
36671;SDS011;22663;47.412;9.742;2022-10-16T14:12:57;5.28;;;1.80;;
36671;SDS011;22663;47.412;9.742;2022-10-16T14:15:24;2.92;;;1.70;;
36671;SDS011;22663;47.412;9.742;2022-10-16T14:17:50;3.38;;;1.63;;
36671;SDS011;22663;47.412;9.742;2022-10-16T14:20:17;3.42;;;2.00;;
36671;SDS011;22663;47.412;9.742;2022-10-16T14:22:44;4.13;;;1.85;;
36671;SDS011;22663;47.412;9.742;2022-10-16T14:28:25;3.42;;;1.98;;
36671;SDS011;22663;47.412;9.742;2022-10-16T14:36:13;2.38;;;1.90;;
36671;SDS011;22663;47.412;9.742;2022-10-16T14:38:42;2.00;;;1.60;;
36671;SDS011;22663;47.412;9.742;2022-10-16T14:41:08;3.20;;;1.63;;
36671;SDS011;22663;47.412;9.742;2022-10-16T14:46:01;4.10;;;2.10;;
36671;SDS011;22663;47.412;9.742;2022-10-16T14:48:28;5.28;;;2.03;;
36671;SDS011;22663;47.412;9.742;2022-10-16T14:50:54;4.72;;;1.88;;
36671;SDS011;22663;47.412;9.742;2022-10-16T14:53:20;3.22;;;1.90;;
36671;SDS011;22663;47.412;9.742;2022-10-16T14:55:47;4.30;;;1.75;;
36671;SDS011;22663;47.412;9.742;2022-10-16T14:58:15;2.00;;;1.50;;
36671;SDS011;22663;47.412;9.742;2022-10-16T15:00:42;2.90;;;1.60;;
36671;SDS011;22663;47.412;9.742;2022-10-16T15:03:08;2.25;;;1.90;;
36671;SDS011;22663;47.412;9.742;2022-10-16T15:05:34;1.50;;;1.40;;
36671;SDS011;22663;47.412;9.742;2022-10-16T15:08:00;3.70;;;1.60;;
36671;SDS011;22663;47.412;9.742;2022-10-16T15:10:26;3.55;;;1.67;;
36671;SDS011;22663;47.412;9.742;2022-10-16T15:12:53;3.50;;;2.08;;
36671;SDS011;22663;47.412;9.742;2022-10-16T15:17:51;3.05;;;1.67;;
36671;SDS011;22663;47.412;9.742;2022-10-16T15:20:20;2.33;;;1.70;;
36671;SDS011;22663;47.412;9.742;2022-10-16T15:22:46;5.50;;;1.98;;
36671;SDS011;22663;47.412;9.742;2022-10-16T15:27:57;3.50;;;2.47;;
36671;SDS011;22663;47.412;9.742;2022-10-16T15:30:24;2.85;;;1.90;;
36671;SDS011;22663;47.412;9.742;2022-10-16T15:32:50;6.00;;;2.65;;
36671;SDS011;22663;47.412;9.742;2022-10-16T15:35:16;4.18;;;2.45;;
36671;SDS011;22663;47.412;9.742;2022-10-16T15:37:42;3.22;;;1.80;;
36671;SDS011;22663;47.412;9.742;2022-10-16T15:40:09;2.95;;;2.13;;
36671;SDS011;22663;47.412;9.742;2022-10-16T15:42:35;2.60;;;2.10;;
36671;SDS011;22663;47.412;9.742;2022-10-16T15:45:01;3.78;;;1.92;;
36671;SDS011;22663;47.412;9.742;2022-10-16T15:47:28;6.93;;;1.60;;
36671;SDS011;22663;47.412;9.742;2022-10-16T15:49:55;7.10;;;1.42;;
36671;SDS011;22663;47.412;9.742;2022-10-16T15:52:21;1.95;;;1.45;;
36671;SDS011;22663;47.412;9.742;2022-10-16T15:54:47;4.82;;;1.60;;
36671;SDS011;22663;47.412;9.742;2022-10-16T15:57:13;5.80;;;1.50;;
36671;SDS011;22663;47.412;9.742;2022-10-16T15:59:39;3.70;;;1.40;;
36671;SDS011;22663;47.412;9.742;2022-10-16T16:02:05;4.70;;;1.50;;
36671;SDS011;22663;47.412;9.742;2022-10-16T16:04:31;2.95;;;1.60;;
36671;SDS011;22663;47.412;9.742;2022-10-16T16:06:57;4.85;;;1.95;;
36671;SDS011;22663;47.412;9.742;2022-10-16T16:09:24;2.22;;;1.60;;
36671;SDS011;22663;47.412;9.742;2022-10-16T16:11:50;6.65;;;1.80;;
36671;SDS011;22663;47.412;9.742;2022-10-16T16:14:17;6.40;;;1.92;;
36671;SDS011;22663;47.412;9.742;2022-10-16T16:16:43;3.85;;;1.60;;
36671;SDS011;22663;47.412;9.742;2022-10-16T16:19:09;4.20;;;1.75;;
36671;SDS011;22663;47.412;9.742;2022-10-16T16:21:35;4.88;;;2.00;;
36671;SDS011;22663;47.412;9.742;2022-10-16T16:24:02;4.70;;;1.95;;
36671;SDS011;22663;47.412;9.742;2022-10-16T16:26:33;1.75;;;1.40;;
36671;SDS011;22663;47.412;9.742;2022-10-16T16:29:01;4.63;;;1.60;;
36671;SDS011;22663;47.412;9.742;2022-10-16T16:31:28;3.13;;;1.90;;
36671;SDS011;22663;47.412;9.742;2022-10-16T16:33:54;3.88;;;1.60;;
36671;SDS011;22663;47.412;9.742;2022-10-16T16:36:22;5.95;;;2.00;;
36671;SDS011;22663;47.412;9.742;2022-10-16T16:38:48;3.85;;;1.90;;
36671;SDS011;22663;47.412;9.742;2022-10-16T16:41:18;4.15;;;1.90;;
36671;SDS011;22663;47.412;9.742;2022-10-16T16:43:44;2.17;;;1.70;;
36671;SDS011;22663;47.412;9.742;2022-10-16T16:46:12;5.35;;;2.03;;
36671;SDS011;22663;47.412;9.742;2022-10-16T16:48:38;2.58;;;1.27;;
36671;SDS011;22663;47.412;9.742;2022-10-16T16:51:05;4.07;;;2.10;;
36671;SDS011;22663;47.412;9.742;2022-10-16T16:53:33;2.13;;;1.58;;
36671;SDS011;22663;47.412;9.742;2022-10-16T16:56:03;2.70;;;1.55;;
36671;SDS011;22663;47.412;9.742;2022-10-16T16:58:29;3.78;;;1.65;;
36671;SDS011;22663;47.412;9.742;2022-10-16T17:00:55;2.22;;;1.40;;
36671;SDS011;22663;47.412;9.742;2022-10-16T17:03:25;3.97;;;1.50;;
36671;SDS011;22663;47.412;9.742;2022-10-16T17:05:55;2.67;;;1.73;;